Terminal Aerodrome Forecast
Issued by NWS Twin Cities, MN

Home | Current Version | Previous Version | Graphics & Text | Print | Product List | Glossary On
Versions: 1 2 3 4 5 6 7 8 9 10 11 12 13 14 15 16 17 18 19 20 21 22 23 24 25 26
000
FTUS43 KMPX 211400 AAA
TAFMSP
TAF AMD
KMSP 211456Z 2115/2218 29011KT P6SM BKN050 OVC070
     FM211700 31014G20KT P6SM SCT070
     FM211900 32018G25KT P6SM SKC
     FM220200 33010KT P6SM SKC
     FM221000 34005KT P6SM SCT250=

USA.gov is the U.S. government's official web portal to all federal, state and local government web resources and services.